sensor_id;sensor_type;location;lat;lon;timestamp;P1;durP1;ratioP1;P2;durP2;ratioP2
10963;SDS011;5534;48.784;9.190;2022-10-16T00:00:31;1.20;;;1.10;;
10963;SDS011;5534;48.784;9.190;2022-10-16T00:02:57;1.00;;;0.90;;
10963;SDS011;5534;48.784;9.190;2022-10-16T00:05:23;2.03;;;1.05;;
10963;SDS011;5534;48.784;9.190;2022-10-16T00:07:49;1.42;;;1.20;;
10963;SDS011;5534;48.784;9.190;2022-10-16T00:10:14;1.45;;;0.90;;
10963;SDS011;5534;48.784;9.190;2022-10-16T00:12:40;2.45;;;1.40;;
10963;SDS011;5534;48.784;9.190;2022-10-16T00:15:06;1.80;;;1.33;;
10963;SDS011;5534;48.784;9.190;2022-10-16T00:17:32;2.90;;;1.10;;
10963;SDS011;5534;48.784;9.190;2022-10-16T00:19:58;2.08;;;1.08;;
10963;SDS011;5534;48.784;9.190;2022-10-16T00:22:24;2.13;;;1.20;;
10963;SDS011;5534;48.784;9.190;2022-10-16T00:24:50;2.67;;;1.00;;
10963;SDS011;5534;48.784;9.190;2022-10-16T00:27:16;1.77;;;1.35;;
10963;SDS011;5534;48.784;9.190;2022-10-16T00:29:42;3.65;;;1.38;;
10963;SDS011;5534;48.784;9.190;2022-10-16T00:32:08;3.65;;;1.40;;
10963;SDS011;5534;48.784;9.190;2022-10-16T00:34:34;3.42;;;1.33;;
10963;SDS011;5534;48.784;9.190;2022-10-16T00:37:01;1.75;;;1.20;;
10963;SDS011;5534;48.784;9.190;2022-10-16T00:39:27;1.48;;;1.10;;
10963;SDS011;5534;48.784;9.190;2022-10-16T00:41:53;5.82;;;3.25;;
10963;SDS011;5534;48.784;9.190;2022-10-16T00:47:08;1.10;;;1.00;;
10963;SDS011;5534;48.784;9.190;2022-10-16T00:49:35;1.63;;;1.10;;
10963;SDS011;5534;48.784;9.190;2022-10-16T00:52:01;1.80;;;1.15;;
10963;SDS011;5534;48.784;9.190;2022-10-16T00:54:28;1.73;;;1.20;;
10963;SDS011;5534;48.784;9.190;2022-10-16T00:56:57;1.50;;;0.90;;
10963;SDS011;5534;48.784;9.190;2022-10-16T00:59:27;1.25;;;1.08;;
10963;SDS011;5534;48.784;9.190;2022-10-16T01:02:05;2.58;;;1.05;;
10963;SDS011;5534;48.784;9.190;2022-10-16T01:04:49;1.42;;;0.93;;
10963;SDS011;5534;48.784;9.190;2022-10-16T01:09:57;1.10;;;1.00;;
10963;SDS011;5534;48.784;9.190;2022-10-16T01:12:45;2.20;;;0.82;;
10963;SDS011;5534;48.784;9.190;2022-10-16T01:23:05;1.13;;;1.00;;
10963;SDS011;5534;48.784;9.190;2022-10-16T01:31:21;1.75;;;1.30;;
10963;SDS011;5534;48.784;9.190;2022-10-16T01:33:53;1.08;;;0.98;;
10963;SDS011;5534;48.784;9.190;2022-10-16T01:36:27;1.42;;;0.95;;
10963;SDS011;5534;48.784;9.190;2022-10-16T01:39:01;1.35;;;0.95;;
10963;SDS011;5534;48.784;9.190;2022-10-16T01:41:30;1.92;;;1.00;;
10963;SDS011;5534;48.784;9.190;2022-10-16T01:46:31;1.65;;;0.90;;
10963;SDS011;5534;48.784;9.190;2022-10-16T01:48:59;0.90;;;0.80;;
10963;SDS011;5534;48.784;9.190;2022-10-16T01:51:26;2.28;;;0.82;;
10963;SDS011;5534;48.784;9.190;2022-10-16T01:53:55;1.80;;;0.98;;
10963;SDS011;5534;48.784;9.190;2022-10-16T01:56:24;4.57;;;1.25;;
10963;SDS011;5534;48.784;9.190;2022-10-16T01:58:55;1.13;;;0.98;;
10963;SDS011;5534;48.784;9.190;2022-10-16T02:01:26;2.25;;;1.08;;
10963;SDS011;5534;48.784;9.190;2022-10-16T02:03:56;2.45;;;0.90;;
10963;SDS011;5534;48.784;9.190;2022-10-16T02:06:26;1.25;;;1.00;;
10963;SDS011;5534;48.784;9.190;2022-10-16T02:08:53;2.13;;;0.90;;
10963;SDS011;5534;48.784;9.190;2022-10-16T02:11:19;1.08;;;0.90;;
10963;SDS011;5534;48.784;9.190;2022-10-16T02:14:04;1.85;;;0.80;;
10963;SDS011;5534;48.784;9.190;2022-10-16T02:19:01;1.35;;;0.98;;
10963;SDS011;5534;48.784;9.190;2022-10-16T02:21:28;1.10;;;0.90;;
10963;SDS011;5534;48.784;9.190;2022-10-16T02:26:34;1.00;;;0.95;;
10963;SDS011;5534;48.784;9.190;2022-10-16T02:29:05;1.52;;;1.10;;
10963;SDS011;5534;48.784;9.190;2022-10-16T02:31:36;2.92;;;0.98;;
10963;SDS011;5534;48.784;9.190;2022-10-16T02:34:07;1.10;;;1.00;;
10963;SDS011;5534;48.784;9.190;2022-10-16T02:36:37;1.73;;;1.00;;
10963;SDS011;5534;48.784;9.190;2022-10-16T02:39:04;1.05;;;0.90;;
10963;SDS011;5534;48.784;9.190;2022-10-16T02:41:30;2.00;;;1.20;;
10963;SDS011;5534;48.784;9.190;2022-10-16T02:43:56;1.33;;;0.88;;
10963;SDS011;5534;48.784;9.190;2022-10-16T02:46:22;2.22;;;0.90;;
10963;SDS011;5534;48.784;9.190;2022-10-16T02:48:48;1.75;;;0.70;;
10963;SDS011;5534;48.784;9.190;2022-10-16T02:51:14;2.80;;;1.52;;
10963;SDS011;5534;48.784;9.190;2022-10-16T02:53:39;1.95;;;1.17;;
10963;SDS011;5534;48.784;9.190;2022-10-16T02:56:05;1.92;;;1.20;;
10963;SDS011;5534;48.784;9.190;2022-10-16T02:58:31;1.02;;;0.82;;
10963;SDS011;5534;48.784;9.190;2022-10-16T03:00:57;1.88;;;0.95;;
10963;SDS011;5534;48.784;9.190;2022-10-16T03:03:22;3.15;;;1.00;;
10963;SDS011;5534;48.784;9.190;2022-10-16T03:05:48;1.55;;;0.80;;
10963;SDS011;5534;48.784;9.190;2022-10-16T03:08:15;2.00;;;1.00;;
10963;SDS011;5534;48.784;9.190;2022-10-16T03:10:41;2.58;;;1.10;;
10963;SDS011;5534;48.784;9.190;2022-10-16T03:13:07;1.10;;;1.00;;
10963;SDS011;5534;48.784;9.190;2022-10-16T03:15:32;1.35;;;0.88;;
10963;SDS011;5534;48.784;9.190;2022-10-16T03:17:58;2.85;;;0.90;;
10963;SDS011;5534;48.784;9.190;2022-10-16T03:20:25;4.78;;;1.10;;
10963;SDS011;5534;48.784;9.190;2022-10-16T03:22:52;3.10;;;1.50;;
10963;SDS011;5534;48.784;9.190;2022-10-16T03:25:17;2.20;;;1.70;;
10963;SDS011;5534;48.784;9.190;2022-10-16T03:27:43;5.20;;;1.58;;
10963;SDS011;5534;48.784;9.190;2022-10-16T03:30:09;1.80;;;0.98;;
10963;SDS011;5534;48.784;9.190;2022-10-16T03:32:35;2.40;;;1.40;;
10963;SDS011;5534;48.784;9.190;2022-10-16T03:35:01;5.65;;;1.73;;
10963;SDS011;5534;48.784;9.190;2022-10-16T03:37:27;2.17;;;1.20;;
10963;SDS011;5534;48.784;9.190;2022-10-16T03:39:53;2.35;;;1.17;;
10963;SDS011;5534;48.784;9.190;2022-10-16T03:42:19;7.28;;;1.10;;
10963;SDS011;5534;48.784;9.190;2022-10-16T03:44:44;3.25;;;0.77;;
10963;SDS011;5534;48.784;9.190;2022-10-16T03:47:10;1.33;;;0.95;;
10963;SDS011;5534;48.784;9.190;2022-10-16T03:49:36;1.73;;;1.10;;
10963;SDS011;5534;48.784;9.190;2022-10-16T03:52:02;1.73;;;1.30;;
10963;SDS011;5534;48.784;9.190;2022-10-16T03:54:29;1.25;;;1.15;;
10963;SDS011;5534;48.784;9.190;2022-10-16T03:56:55;1.35;;;1.00;;
10963;SDS011;5534;48.784;9.190;2022-10-16T03:59:20;1.38;;;1.10;;
10963;SDS011;5534;48.784;9.190;2022-10-16T04:01:46;2.70;;;0.90;;
10963;SDS011;5534;48.784;9.190;2022-10-16T04:04:12;4.43;;;0.90;;
10963;SDS011;5534;48.784;9.190;2022-10-16T04:06:37;1.02;;;0.90;;
10963;SDS011;5534;48.784;9.190;2022-10-16T04:09:03;1.35;;;1.08;;
10963;SDS011;5534;48.784;9.190;2022-10-16T04:11:29;0.90;;;0.82;;
10963;SDS011;5534;48.784;9.190;2022-10-16T04:13:55;0.93;;;0.80;;
10963;SDS011;5534;48.784;9.190;2022-10-16T04:16:20;1.20;;;0.93;;
10963;SDS011;5534;48.784;9.190;2022-10-16T04:18:46;1.98;;;1.10;;
10963;SDS011;5534;48.784;9.190;2022-10-16T04:21:12;4.43;;;1.35;;
10963;SDS011;5534;48.784;9.190;2022-10-16T04:23:38;4.50;;;1.10;;
10963;SDS011;5534;48.784;9.190;2022-10-16T04:26:04;1.00;;;0.88;;
10963;SDS011;5534;48.784;9.190;2022-10-16T04:28:30;0.90;;;0.85;;
10963;SDS011;5534;48.784;9.190;2022-10-16T04:30:55;2.65;;;0.90;;
10963;SDS011;5534;48.784;9.190;2022-10-16T04:33:21;1.02;;;0.70;;
10963;SDS011;5534;48.784;9.190;2022-10-16T04:35:47;1.98;;;0.85;;
10963;SDS011;5534;48.784;9.190;2022-10-16T04:38:13;2.38;;;1.00;;
10963;SDS011;5534;48.784;9.190;2022-10-16T04:40:38;5.43;;;0.90;;
10963;SDS011;5534;48.784;9.190;2022-10-16T04:43:04;0.82;;;0.77;;
10963;SDS011;5534;48.784;9.190;2022-10-16T04:45:31;1.48;;;1.10;;
10963;SDS011;5534;48.784;9.190;2022-10-16T04:47:57;1.10;;;1.00;;
10963;SDS011;5534;48.784;9.190;2022-10-16T04:50:23;1.17;;;1.00;;
10963;SDS011;5534;48.784;9.190;2022-10-16T04:52:49;1.50;;;1.00;;
10963;SDS011;5534;48.784;9.190;2022-10-16T04:55:15;1.33;;;0.90;;
10963;SDS011;5534;48.784;9.190;2022-10-16T04:57:40;1.20;;;1.00;;
10963;SDS011;5534;48.784;9.190;2022-10-16T05:00:06;2.58;;;1.70;;
10963;SDS011;5534;48.784;9.190;2022-10-16T05:02:33;1.13;;;1.00;;
10963;SDS011;5534;48.784;9.190;2022-10-16T05:04:59;1.30;;;1.08;;
10963;SDS011;5534;48.784;9.190;2022-10-16T05:07:25;1.55;;;1.05;;
10963;SDS011;5534;48.784;9.190;2022-10-16T05:09:52;2.22;;;1.20;;
10963;SDS011;5534;48.784;9.190;2022-10-16T05:12:18;1.30;;;1.20;;
10963;SDS011;5534;48.784;9.190;2022-10-16T05:14:44;1.60;;;1.00;;
10963;SDS011;5534;48.784;9.190;2022-10-16T05:17:10;1.05;;;0.82;;
10963;SDS011;5534;48.784;9.190;2022-10-16T05:19:35;2.83;;;1.00;;
10963;SDS011;5534;48.784;9.190;2022-10-16T05:22:01;3.13;;;0.93;;
10963;SDS011;5534;48.784;9.190;2022-10-16T05:24:27;0.80;;;0.70;;
10963;SDS011;5534;48.784;9.190;2022-10-16T05:26:53;2.00;;;0.98;;
10963;SDS011;5534;48.784;9.190;2022-10-16T05:29:19;1.17;;;0.98;;
10963;SDS011;5534;48.784;9.190;2022-10-16T05:31:45;1.25;;;1.02;;
10963;SDS011;5534;48.784;9.190;2022-10-16T05:34:11;2.33;;;0.82;;
10963;SDS011;5534;48.784;9.190;2022-10-16T05:36:36;2.13;;;1.00;;
10963;SDS011;5534;48.784;9.190;2022-10-16T05:39:02;1.33;;;0.82;;
10963;SDS011;5534;48.784;9.190;2022-10-16T05:41:28;1.13;;;0.95;;
10963;SDS011;5534;48.784;9.190;2022-10-16T05:43:54;1.88;;;0.90;;
10963;SDS011;5534;48.784;9.190;2022-10-16T05:46:19;1.10;;;1.00;;
10963;SDS011;5534;48.784;9.190;2022-10-16T05:48:45;2.92;;;1.00;;
10963;SDS011;5534;48.784;9.190;2022-10-16T05:51:12;1.15;;;0.90;;
10963;SDS011;5534;48.784;9.190;2022-10-16T05:53:39;2.55;;;0.80;;
10963;SDS011;5534;48.784;9.190;2022-10-16T05:56:06;2.63;;;1.15;;
10963;SDS011;5534;48.784;9.190;2022-10-16T05:58:34;3.78;;;1.30;;
10963;SDS011;5534;48.784;9.190;2022-10-16T06:01:05;1.67;;;1.20;;
10963;SDS011;5534;48.784;9.190;2022-10-16T06:03:33;2.88;;;1.20;;
10963;SDS011;5534;48.784;9.190;2022-10-16T06:05:59;1.48;;;1.20;;
10963;SDS011;5534;48.784;9.190;2022-10-16T06:08:36;2.83;;;1.40;;
10963;SDS011;5534;48.784;9.190;2022-10-16T06:11:02;2.60;;;1.80;;
10963;SDS011;5534;48.784;9.190;2022-10-16T06:13:30;4.40;;;1.40;;
10963;SDS011;5534;48.784;9.190;2022-10-16T06:15:57;2.30;;;1.38;;
10963;SDS011;5534;48.784;9.190;2022-10-16T06:18:24;2.95;;;1.55;;
10963;SDS011;5534;48.784;9.190;2022-10-16T06:20:50;5.50;;;1.80;;
10963;SDS011;5534;48.784;9.190;2022-10-16T06:23:16;1.83;;;1.48;;
10963;SDS011;5534;48.784;9.190;2022-10-16T06:25:41;1.73;;;1.30;;
10963;SDS011;5534;48.784;9.190;2022-10-16T06:28:07;3.20;;;1.58;;
10963;SDS011;5534;48.784;9.190;2022-10-16T06:30:33;2.05;;;1.55;;
10963;SDS011;5534;48.784;9.190;2022-10-16T06:32:58;2.35;;;1.42;;
10963;SDS011;5534;48.784;9.190;2022-10-16T06:35:24;3.83;;;1.35;;
10963;SDS011;5534;48.784;9.190;2022-10-16T06:37:50;3.53;;;1.70;;
10963;SDS011;5534;48.784;9.190;2022-10-16T06:40:18;4.25;;;2.45;;
10963;SDS011;5534;48.784;9.190;2022-10-16T06:42:44;1.88;;;1.42;;
10963;SDS011;5534;48.784;9.190;2022-10-16T06:45:10;2.58;;;1.30;;
10963;SDS011;5534;48.784;9.190;2022-10-16T06:47:36;3.55;;;1.27;;
10963;SDS011;5534;48.784;9.190;2022-10-16T06:50:02;3.10;;;1.65;;
10963;SDS011;5534;48.784;9.190;2022-10-16T06:52:28;2.67;;;1.90;;
10963;SDS011;5534;48.784;9.190;2022-10-16T06:54:54;2.72;;;1.75;;
10963;SDS011;5534;48.784;9.190;2022-10-16T06:57:20;2.55;;;1.55;;
10963;SDS011;5534;48.784;9.190;2022-10-16T06:59:46;4.68;;;1.70;;
10963;SDS011;5534;48.784;9.190;2022-10-16T07:02:12;3.15;;;1.73;;
10963;SDS011;5534;48.784;9.190;2022-10-16T07:04:38;4.68;;;1.95;;
10963;SDS011;5534;48.784;9.190;2022-10-16T07:07:04;2.30;;;1.85;;
10963;SDS011;5534;48.784;9.190;2022-10-16T07:09:29;2.95;;;1.88;;
10963;SDS011;5534;48.784;9.190;2022-10-16T07:11:55;2.28;;;1.65;;
10963;SDS011;5534;48.784;9.190;2022-10-16T07:14:21;3.67;;;1.67;;
10963;SDS011;5534;48.784;9.190;2022-10-16T07:16:47;3.33;;;2.03;;
10963;SDS011;5534;48.784;9.190;2022-10-16T07:19:13;3.47;;;1.70;;
10963;SDS011;5534;48.784;9.190;2022-10-16T07:21:42;3.13;;;1.73;;
10963;SDS011;5534;48.784;9.190;2022-10-16T07:24:11;6.03;;;2.05;;
10963;SDS011;5534;48.784;9.190;2022-10-16T07:26:39;4.07;;;2.20;;
10963;SDS011;5534;48.784;9.190;2022-10-16T07:29:07;3.03;;;1.90;;
10963;SDS011;5534;48.784;9.190;2022-10-16T07:31:38;4.90;;;2.33;;
10963;SDS011;5534;48.784;9.190;2022-10-16T07:34:04;3.28;;;1.98;;
10963;SDS011;5534;48.784;9.190;2022-10-16T07:36:30;2.70;;;1.73;;
10963;SDS011;5534;48.784;9.190;2022-10-16T07:38:56;4.57;;;3.33;;
10963;SDS011;5534;48.784;9.190;2022-10-16T07:41:22;6.05;;;2.33;;
10963;SDS011;5534;48.784;9.190;2022-10-16T07:43:48;3.15;;;1.92;;
10963;SDS011;5534;48.784;9.190;2022-10-16T07:46:16;4.78;;;2.40;;
10963;SDS011;5534;48.784;9.190;2022-10-16T07:48:42;3.15;;;1.73;;
10963;SDS011;5534;48.784;9.190;2022-10-16T07:51:17;2.50;;;1.73;;
10963;SDS011;5534;48.784;9.190;2022-10-16T07:53:44;2.00;;;1.63;;
10963;SDS011;5534;48.784;9.190;2022-10-16T07:56:10;3.30;;;2.17;;
10963;SDS011;5534;48.784;9.190;2022-10-16T07:58:36;2.00;;;1.70;;
10963;SDS011;5534;48.784;9.190;2022-10-16T08:01:03;2.10;;;1.55;;
10963;SDS011;5534;48.784;9.190;2022-10-16T08:03:30;2.30;;;1.88;;
10963;SDS011;5534;48.784;9.190;2022-10-16T08:05:56;4.38;;;1.77;;
10963;SDS011;5534;48.784;9.190;2022-10-16T08:08:23;3.05;;;1.80;;
10963;SDS011;5534;48.784;9.190;2022-10-16T08:10:48;6.43;;;1.70;;
10963;SDS011;5534;48.784;9.190;2022-10-16T08:13:14;1.73;;;1.38;;
10963;SDS011;5534;48.784;9.190;2022-10-16T08:15:43;4.50;;;1.83;;
10963;SDS011;5534;48.784;9.190;2022-10-16T08:18:10;3.60;;;1.60;;
10963;SDS011;5534;48.784;9.190;2022-10-16T08:20:37;2.60;;;1.58;;
10963;SDS011;5534;48.784;9.190;2022-10-16T08:23:03;2.17;;;1.38;;
10963;SDS011;5534;48.784;9.190;2022-10-16T08:25:29;2.42;;;1.52;;
10963;SDS011;5534;48.784;9.190;2022-10-16T08:27:55;2.55;;;1.90;;
10963;SDS011;5534;48.784;9.190;2022-10-16T08:30:21;3.00;;;1.80;;
10963;SDS011;5534;48.784;9.190;2022-10-16T08:32:48;1.58;;;1.27;;
10963;SDS011;5534;48.784;9.190;2022-10-16T08:35:14;3.15;;;1.63;;
10963;SDS011;5534;48.784;9.190;2022-10-16T08:37:41;3.42;;;1.42;;
10963;SDS011;5534;48.784;9.190;2022-10-16T08:40:13;0.82;;;0.80;;
10963;SDS011;5534;48.784;9.190;2022-10-16T08:50:44;1.48;;;1.20;;
10963;SDS011;5534;48.784;9.190;2022-10-16T08:56:03;1.10;;;1.00;;
10963;SDS011;5534;48.784;9.190;2022-10-16T08:58:29;1.83;;;1.10;;
10963;SDS011;5534;48.784;9.190;2022-10-16T09:00:57;1.95;;;0.95;;
10963;SDS011;5534;48.784;9.190;2022-10-16T09:11:34;3.05;;;1.42;;
10963;SDS011;5534;48.784;9.190;2022-10-16T09:14:40;2.85;;;1.30;;
10963;SDS011;5534;48.784;9.190;2022-10-16T09:22:51;2.05;;;1.02;;
10963;SDS011;5534;48.784;9.190;2022-10-16T09:25:33;1.65;;;1.17;;
10963;SDS011;5534;48.784;9.190;2022-10-16T09:28:00;2.30;;;1.50;;
10963;SDS011;5534;48.784;9.190;2022-10-16T09:30:26;2.17;;;1.27;;
10963;SDS011;5534;48.784;9.190;2022-10-16T09:32:57;3.13;;;1.52;;
10963;SDS011;5534;48.784;9.190;2022-10-16T09:38:01;3.67;;;1.30;;
10963;SDS011;5534;48.784;9.190;2022-10-16T09:40:28;1.95;;;1.38;;
10963;SDS011;5534;48.784;9.190;2022-10-16T09:43:01;1.27;;;1.17;;
10963;SDS011;5534;48.784;9.190;2022-10-16T09:45:39;3.88;;;2.03;;
10963;SDS011;5534;48.784;9.190;2022-10-16T09:48:12;4.63;;;1.88;;
10963;SDS011;5534;48.784;9.190;2022-10-16T09:50:38;3.42;;;1.10;;
10963;SDS011;5534;48.784;9.190;2022-10-16T09:53:13;1.10;;;0.98;;
10963;SDS011;5534;48.784;9.190;2022-10-16T09:55:49;3.08;;;1.30;;
10963;SDS011;5534;48.784;9.190;2022-10-16T09:58:16;2.97;;;1.27;;
10963;SDS011;5534;48.784;9.190;2022-10-16T10:00:42;3.67;;;1.30;;
10963;SDS011;5534;48.784;9.190;2022-10-16T10:06:05;2.20;;;1.40;;
10963;SDS011;5534;48.784;9.190;2022-10-16T10:08:51;2.17;;;1.45;;
10963;SDS011;5534;48.784;9.190;2022-10-16T10:11:42;3.28;;;1.70;;
10963;SDS011;5534;48.784;9.190;2022-10-16T10:14:30;4.20;;;1.38;;
10963;SDS011;5534;48.784;9.190;2022-10-16T10:19:36;2.58;;;1.75;;
10963;SDS011;5534;48.784;9.190;2022-10-16T10:30:55;1.83;;;1.20;;
10963;SDS011;5534;48.784;9.190;2022-10-16T10:33:37;1.75;;;1.17;;
10963;SDS011;5534;48.784;9.190;2022-10-16T10:38:50;1.50;;;1.00;;
10963;SDS011;5534;48.784;9.190;2022-10-16T10:46:57;1.20;;;1.10;;
10963;SDS011;5534;48.784;9.190;2022-10-16T10:49:58;1.98;;;1.33;;
10963;SDS011;5534;48.784;9.190;2022-10-16T10:55:25;2.45;;;1.10;;
10963;SDS011;5534;48.784;9.190;2022-10-16T11:01:13;1.55;;;1.20;;
10963;SDS011;5534;48.784;9.190;2022-10-16T11:09:15;2.50;;;1.40;;
10963;SDS011;5534;48.784;9.190;2022-10-16T11:11:58;1.92;;;1.50;;
10963;SDS011;5534;48.784;9.190;2022-10-16T11:14:48;2.38;;;1.63;;
10963;SDS011;5534;48.784;9.190;2022-10-16T11:17:30;2.72;;;1.10;;
10963;SDS011;5534;48.784;9.190;2022-10-16T11:20:05;5.47;;;2.03;;
10963;SDS011;5534;48.784;9.190;2022-10-16T11:25:22;3.60;;;1.70;;
10963;SDS011;5534;48.784;9.190;2022-10-16T11:28:53;2.38;;;1.55;;
10963;SDS011;5534;48.784;9.190;2022-10-16T11:30:57;2.10;;;1.38;;
10963;SDS011;5534;48.784;9.190;2022-10-16T11:33:35;1.50;;;1.13;;
10963;SDS011;5534;48.784;9.190;2022-10-16T11:39:12;1.42;;;1.00;;
10963;SDS011;5534;48.784;9.190;2022-10-16T11:41:50;3.15;;;1.70;;
10963;SDS011;5534;48.784;9.190;2022-10-16T11:49:53;3.25;;;1.35;;
10963;SDS011;5534;48.784;9.190;2022-10-16T11:55:33;1.67;;;1.20;;
10963;SDS011;5534;48.784;9.190;2022-10-16T12:06:55;2.50;;;1.02;;
10963;SDS011;5534;48.784;9.190;2022-10-16T12:09:32;2.85;;;1.05;;
10963;SDS011;5534;48.784;9.190;2022-10-16T12:12:02;1.48;;;1.15;;
10963;SDS011;5534;48.784;9.190;2022-10-16T12:14:40;1.20;;;1.02;;
10963;SDS011;5534;48.784;9.190;2022-10-16T12:17:26;1.50;;;1.02;;
10963;SDS011;5534;48.784;9.190;2022-10-16T12:20:12;1.42;;;1.20;;
10963;SDS011;5534;48.784;9.190;2022-10-16T12:22:46;3.15;;;1.70;;
10963;SDS011;5534;48.784;9.190;2022-10-16T12:25:20;2.63;;;1.00;;
10963;SDS011;5534;48.784;9.190;2022-10-16T12:28:06;2.30;;;1.30;;
10963;SDS011;5534;48.784;9.190;2022-10-16T12:30:42;3.78;;;1.70;;
10963;SDS011;5534;48.784;9.190;2022-10-16T12:33:21;2.08;;;1.65;;
10963;SDS011;5534;48.784;9.190;2022-10-16T12:35:54;2.17;;;1.30;;
10963;SDS011;5534;48.784;9.190;2022-10-16T12:38:26;6.60;;;1.42;;
10963;SDS011;5534;48.784;9.190;2022-10-16T12:46:01;1.45;;;1.35;;
10963;SDS011;5534;48.784;9.190;2022-10-16T12:48:30;1.60;;;1.25;;
10963;SDS011;5534;48.784;9.190;2022-10-16T12:50:56;1.60;;;1.40;;
10963;SDS011;5534;48.784;9.190;2022-10-16T12:53:23;3.95;;;1.25;;
10963;SDS011;5534;48.784;9.190;2022-10-16T13:01:21;1.42;;;1.30;;
10963;SDS011;5534;48.784;9.190;2022-10-16T13:04:20;1.85;;;1.23;;
10963;SDS011;5534;48.784;9.190;2022-10-16T13:07:09;3.47;;;1.35;;
10963;SDS011;5534;48.784;9.190;2022-10-16T13:29:19;2.42;;;1.10;;
10963;SDS011;5534;48.784;9.190;2022-10-16T13:31:45;2.53;;;1.25;;
10963;SDS011;5534;48.784;9.190;2022-10-16T13:34:16;1.42;;;1.13;;
10963;SDS011;5534;48.784;9.190;2022-10-16T13:36:47;1.60;;;1.00;;
10963;SDS011;5534;48.784;9.190;2022-10-16T13:39:24;3.22;;;1.20;;
10963;SDS011;5534;48.784;9.190;2022-10-16T13:42:02;2.97;;;1.45;;
10963;SDS011;5534;48.784;9.190;2022-10-16T13:44:40;4.68;;;1.50;;
10963;SDS011;5534;48.784;9.190;2022-10-16T13:47:15;2.58;;;1.60;;
10963;SDS011;5534;48.784;9.190;2022-10-16T13:49:43;2.10;;;1.20;;
10963;SDS011;5534;48.784;9.190;2022-10-16T13:52:16;2.33;;;1.45;;
10963;SDS011;5534;48.784;9.190;2022-10-16T13:54:44;2.20;;;1.70;;
10963;SDS011;5534;48.784;9.190;2022-10-16T13:57:16;1.55;;;1.27;;
10963;SDS011;5534;48.784;9.190;2022-10-16T13:59:42;2.97;;;1.40;;
10963;SDS011;5534;48.784;9.190;2022-10-16T14:02:14;3.35;;;1.83;;
10963;SDS011;5534;48.784;9.190;2022-10-16T14:05:00;2.22;;;1.80;;
10963;SDS011;5534;48.784;9.190;2022-10-16T14:07:31;2.95;;;1.63;;
10963;SDS011;5534;48.784;9.190;2022-10-16T14:10:01;2.55;;;1.35;;
10963;SDS011;5534;48.784;9.190;2022-10-16T14:12:30;3.22;;;1.77;;
10963;SDS011;5534;48.784;9.190;2022-10-16T14:14:56;2.38;;;1.40;;
10963;SDS011;5534;48.784;9.190;2022-10-16T14:19:52;7.65;;;2.78;;
10963;SDS011;5534;48.784;9.190;2022-10-16T14:28:13;4.35;;;2.63;;
10963;SDS011;5534;48.784;9.190;2022-10-16T14:33:20;3.33;;;1.80;;
10963;SDS011;5534;48.784;9.190;2022-10-16T14:35:56;4.63;;;2.15;;
10963;SDS011;5534;48.784;9.190;2022-10-16T14:38:27;2.20;;;1.83;;
10963;SDS011;5534;48.784;9.190;2022-10-16T14:40:54;2.83;;;2.05;;
10963;SDS011;5534;48.784;9.190;2022-10-16T14:43:33;3.30;;;2.03;;
10963;SDS011;5534;48.784;9.190;2022-10-16T14:46:09;2.97;;;1.70;;
10963;SDS011;5534;48.784;9.190;2022-10-16T14:48:39;2.28;;;1.90;;
10963;SDS011;5534;48.784;9.190;2022-10-16T14:51:08;3.08;;;1.70;;
10963;SDS011;5534;48.784;9.190;2022-10-16T14:53:40;2.30;;;1.92;;
10963;SDS011;5534;48.784;9.190;2022-10-16T14:56:12;3.22;;;2.03;;
10963;SDS011;5534;48.784;9.190;2022-10-16T14:58:47;3.00;;;1.85;;
10963;SDS011;5534;48.784;9.190;2022-10-16T15:01:14;6.57;;;2.05;;
10963;SDS011;5534;48.784;9.190;2022-10-16T15:03:40;6.00;;;1.98;;
10963;SDS011;5534;48.784;9.190;2022-10-16T15:06:13;4.50;;;2.95;;
10963;SDS011;5534;48.784;9.190;2022-10-16T15:08:40;5.13;;;2.42;;
10963;SDS011;5534;48.784;9.190;2022-10-16T15:11:13;4.70;;;2.70;;
10963;SDS011;5534;48.784;9.190;2022-10-16T15:13:44;3.63;;;2.50;;
10963;SDS011;5534;48.784;9.190;2022-10-16T15:16:11;3.80;;;2.15;;
10963;SDS011;5534;48.784;9.190;2022-10-16T15:18:39;7.47;;;3.15;;
10963;SDS011;5534;48.784;9.190;2022-10-16T15:21:04;3.55;;;2.58;;
10963;SDS011;5534;48.784;9.190;2022-10-16T15:23:30;2.72;;;2.28;;
10963;SDS011;5534;48.784;9.190;2022-10-16T15:25:56;3.00;;;2.63;;
10963;SDS011;5534;48.784;9.190;2022-10-16T15:28:23;3.72;;;1.60;;
10963;SDS011;5534;48.784;9.190;2022-10-16T15:30:50;2.67;;;1.55;;
10963;SDS011;5534;48.784;9.190;2022-10-16T15:33:18;3.47;;;1.77;;
10963;SDS011;5534;48.784;9.190;2022-10-16T15:35:46;1.60;;;1.50;;
10963;SDS011;5534;48.784;9.190;2022-10-16T15:38:14;3.40;;;1.92;;
10963;SDS011;5534;48.784;9.190;2022-10-16T15:40:40;7.95;;;2.55;;
10963;SDS011;5534;48.784;9.190;2022-10-16T15:43:06;5.07;;;2.70;;
10963;SDS011;5534;48.784;9.190;2022-10-16T15:45:33;5.35;;;2.90;;
10963;SDS011;5534;48.784;9.190;2022-10-16T15:47:59;5.90;;;2.83;;
10963;SDS011;5534;48.784;9.190;2022-10-16T15:50:25;3.35;;;2.00;;
10963;SDS011;5534;48.784;9.190;2022-10-16T15:52:51;4.30;;;3.42;;
10963;SDS011;5534;48.784;9.190;2022-10-16T15:55:17;4.32;;;3.15;;
10963;SDS011;5534;48.784;9.190;2022-10-16T15:57:44;6.57;;;4.43;;
10963;SDS011;5534;48.784;9.190;2022-10-16T16:00:14;4.05;;;2.80;;
10963;SDS011;5534;48.784;9.190;2022-10-16T16:02:43;3.40;;;2.50;;
10963;SDS011;5534;48.784;9.190;2022-10-16T16:05:14;3.20;;;2.55;;
10963;SDS011;5534;48.784;9.190;2022-10-16T16:07:40;3.30;;;2.50;;
10963;SDS011;5534;48.784;9.190;2022-10-16T16:10:07;5.20;;;3.40;;
10963;SDS011;5534;48.784;9.190;2022-10-16T16:12:34;3.05;;;2.55;;
10963;SDS011;5534;48.784;9.190;2022-10-16T16:15:00;3.80;;;2.33;;
10963;SDS011;5534;48.784;9.190;2022-10-16T16:17:26;3.80;;;2.17;;
10963;SDS011;5534;48.784;9.190;2022-10-16T16:19:52;3.90;;;2.55;;
10963;SDS011;5534;48.784;9.190;2022-10-16T16:22:17;4.88;;;3.67;;
10963;SDS011;5534;48.784;9.190;2022-10-16T16:24:43;9.95;;;6.13;;
10963;SDS011;5534;48.784;9.190;2022-10-16T16:27:09;19.25;;;14.73;;
10963;SDS011;5534;48.784;9.190;2022-10-16T16:29:35;21.60;;;14.00;;
10963;SDS011;5534;48.784;9.190;2022-10-16T16:32:01;13.02;;;9.40;;
10963;SDS011;5534;48.784;9.190;2022-10-16T16:34:27;8.15;;;5.43;;
10963;SDS011;5534;48.784;9.190;2022-10-16T16:36:54;6.70;;;4.63;;
10963;SDS011;5534;48.784;9.190;2022-10-16T16:39:20;7.22;;;4.78;;
10963;SDS011;5534;48.784;9.190;2022-10-16T16:41:46;9.55;;;5.60;;
10963;SDS011;5534;48.784;9.190;2022-10-16T16:44:12;9.40;;;5.60;;
10963;SDS011;5534;48.784;9.190;2022-10-16T16:46:39;8.75;;;5.50;;
10963;SDS011;5534;48.784;9.190;2022-10-16T16:49:08;8.15;;;4.35;;
10963;SDS011;5534;48.784;9.190;2022-10-16T16:51:37;6.40;;;2.95;;
10963;SDS011;5534;48.784;9.190;2022-10-16T16:54:04;2.72;;;2.10;;
10963;SDS011;5534;48.784;9.190;2022-10-16T16:56:33;2.78;;;2.13;;
10963;SDS011;5534;48.784;9.190;2022-10-16T16:59:01;2.20;;;1.92;;
10963;SDS011;5534;48.784;9.190;2022-10-16T17:01:27;3.05;;;2.33;;
10963;SDS011;5534;48.784;9.190;2022-10-16T17:03:53;5.38;;;2.63;;
10963;SDS011;5534;48.784;9.190;2022-10-16T17:06:22;4.82;;;2.70;;
10963;SDS011;5534;48.784;9.190;2022-10-16T17:08:50;5.70;;;4.75;;
10963;SDS011;5534;48.784;9.190;2022-10-16T17:11:17;5.18;;;3.78;;
10963;SDS011;5534;48.784;9.190;2022-10-16T17:13:45;7.43;;;4.60;;
10963;SDS011;5534;48.784;9.190;2022-10-16T17:16:11;5.88;;;4.35;;
10963;SDS011;5534;48.784;9.190;2022-10-16T17:18:37;10.40;;;6.70;;
10963;SDS011;5534;48.784;9.190;2022-10-16T17:21:05;10.82;;;7.07;;
10963;SDS011;5534;48.784;9.190;2022-10-16T17:23:32;14.13;;;8.90;;
10963;SDS011;5534;48.784;9.190;2022-10-16T17:26:06;16.00;;;8.57;;
10963;SDS011;5534;48.784;9.190;2022-10-16T17:28:37;12.98;;;7.97;;
10963;SDS011;5534;48.784;9.190;2022-10-16T17:31:10;10.88;;;7.70;;
10963;SDS011;5534;48.784;9.190;2022-10-16T17:33:38;8.98;;;5.43;;
10963;SDS011;5534;48.784;9.190;2022-10-16T17:36:04;4.90;;;2.90;;
10963;SDS011;5534;48.784;9.190;2022-10-16T17:38:31;4.22;;;2.70;;
10963;SDS011;5534;48.784;9.190;2022-10-16T17:40:57;2.88;;;2.22;;
10963;SDS011;5534;48.784;9.190;2022-10-16T17:43:23;4.10;;;2.67;;